createdAt,value
2019-05-21T00:00:23.682Z,87.27
2019-05-21T00:01:23.735Z,86.87
2019-05-21T00:02:23.664Z,86.97
2019-05-21T00:03:23.637Z,87.18
2019-05-21T00:04:28.385Z,87.27
2019-05-21T00:05:24.826Z,87.18
2019-05-21T00:06:23.606Z,87.12
2019-05-21T00:07:23.578Z,87.18
2019-05-21T00:08:23.573Z,86.57
2019-05-21T00:09:23.543Z,86.97
2019-05-21T00:10:23.572Z,86.87
2019-05-21T00:11:23.598Z,87.38
2019-05-21T00:12:23.530Z,87.18
2019-05-21T00:13:23.455Z,87.78
2019-05-21T00:14:23.446Z,87.68
2019-05-21T00:15:23.467Z,87.68
2019-05-21T00:16:23.506Z,87.41
2019-05-21T00:17:23.465Z,87.48
2019-05-21T00:18:23.457Z,87.78
2019-05-21T00:19:23.454Z,87.12
2019-05-21T00:20:23.510Z,86.67
2019-05-21T00:21:23.444Z,86.71
2019-05-21T00:22:23.469Z,87.62
2019-05-21T00:23:23.415Z,86.77
2019-05-21T00:24:23.412Z,86.97
2019-05-21T00:25:23.466Z,86.61
2019-05-21T00:26:23.385Z,87.18
2019-05-21T00:27:23.403Z,86.71
2019-05-21T00:28:23.357Z,87.82
2019-05-21T00:29:23.324Z,87.78
2019-05-21T00:30:23.395Z,87.72
2019-05-21T00:31:23.341Z,87.72
2019-05-21T00:32:23.303Z,88.02
2019-05-21T00:33:23.306Z,88.02
2019-05-21T00:34:23.349Z,87.82
2019-05-21T00:35:23.250Z,88.02
2019-05-21T00:36:23.272Z,87.62
2019-05-21T00:37:23.268Z,87.41
2019-05-21T00:38:23.257Z,86.77
2019-05-21T00:39:23.237Z,87.12
2019-05-21T00:40:23.269Z,86.61
2019-05-21T00:41:23.264Z,86.91
2019-05-21T00:42:23.204Z,87.41
2019-05-21T00:43:23.186Z,88.02
2019-05-21T00:44:23.188Z,88.02
2019-05-21T00:45:23.168Z,87.52
2019-05-21T00:46:23.245Z,87.62
2019-05-21T00:47:23.160Z,87.52
2019-05-21T00:48:23.163Z,87.01
2019-05-21T00:49:23.133Z,86.91
2019-05-21T00:50:23.121Z,86.81
2019-05-21T00:51:23.157Z,87.01
2019-05-21T00:52:23.175Z,88.12
2019-05-21T00:53:23.091Z,88.02
2019-05-21T00:54:23.043Z,87.62
2019-05-21T00:55:23.009Z,88.23
2019-05-21T00:56:22.989Z,88.23
2019-05-21T00:57:23.015Z,88.12
2019-05-21T00:58:22.972Z,88.43
2019-05-21T00:59:22.966Z,87.72
2019-05-21T01:00:22.953Z,87.82
2019-05-21T01:01:22.937Z,87.21
2019-05-21T01:02:22.972Z,87.76
2019-05-21T01:03:22.915Z,88.06
2019-05-21T01:04:22.915Z,87.92
2019-05-21T01:05:22.899Z,87.46
2019-05-21T01:06:22.888Z,87.86
2019-05-21T01:07:22.881Z,87.15
2019-05-21T01:08:22.911Z,87.86
2019-05-21T01:09:22.861Z,88.06
2019-05-21T01:10:22.845Z,87.96
2019-05-21T01:11:22.832Z,88.06
2019-05-21T01:12:22.827Z,88.57
2019-05-21T01:13:22.847Z,87.76
2019-05-21T01:14:22.796Z,88.17
2019-05-21T01:15:22.785Z,88.06
2019-05-21T01:16:22.781Z,87.86
2019-05-21T01:17:22.817Z,87.86
2019-05-21T01:18:22.810Z,87.96
2019-05-21T01:19:22.759Z,87.66
2019-05-21T01:20:22.736Z,87.46
2019-05-21T01:21:22.730Z,86.95
2019-05-21T01:22:22.713Z,87.66
2019-05-21T01:23:22.742Z,87.86
2019-05-21T01:24:22.701Z,86.75
2019-05-21T01:25:22.702Z,86.75
2019-05-21T01:26:22.677Z,86.95
2019-05-21T01:27:22.674Z,87.15
2019-05-21T01:28:22.653Z,87.66
2019-05-21T01:29:22.669Z,87.76
2019-05-21T01:30:22.653Z,87.76
2019-05-21T01:31:22.713Z,87.05
2019-05-21T01:32:22.737Z,87.40
2019-05-21T01:33:22.637Z,87.19
2019-05-21T01:34:22.799Z,87.46
2019-05-21T01:35:22.655Z,88.01
2019-05-21T01:36:22.597Z,88.06
2019-05-21T01:37:22.664Z,87.76
2019-05-21T01:38:22.577Z,88.06
2019-05-21T01:39:22.674Z,87.66
2019-05-21T01:40:22.524Z,87.60
2019-05-21T01:41:22.545Z,87.56
2019-05-21T01:42:22.506Z,87.76
2019-05-21T01:43:22.490Z,87.81
2019-05-21T01:44:22.520Z,87.66
2019-05-21T01:45:22.491Z,87.90
2019-05-21T01:46:22.460Z,87.30
2019-05-21T01:47:22.450Z,86.39
2019-05-21T01:48:22.442Z,86.49
2019-05-21T01:49:22.483Z,86.69
2019-05-21T01:50:22.437Z,87.19
2019-05-21T01:51:22.415Z,86.39
2019-05-21T01:52:22.401Z,86.29
2019-05-21T01:53:22.387Z,86.69
2019-05-21T01:54:22.381Z,86.79
2019-05-21T01:55:22.418Z,87.30
2019-05-21T01:56:22.373Z,87.30
2019-05-21T01:57:22.353Z,87.60
2019-05-21T01:58:22.344Z,87.60
2019-05-21T01:59:22.327Z,87.50
2019-05-21T02:00:22.355Z,87.60
2019-05-21T02:01:22.301Z,87.90
2019-05-21T02:02:22.307Z,87.50
2019-05-21T02:03:22.297Z,87.90
2019-05-21T02:04:22.267Z,87.60
2019-05-21T02:05:32.570Z,87.30
2019-05-21T02:06:23.291Z,86.79
2019-05-21T02:07:22.248Z,86.29
2019-05-21T02:08:22.247Z,86.49
2019-05-21T02:09:22.224Z,86.29
2019-05-21T02:10:22.221Z,86.90
2019-05-21T02:11:22.233Z,87.19
2019-05-21T02:12:22.209Z,87.54
2019-05-21T02:13:22.194Z,87.81
2019-05-21T02:14:22.254Z,87.10
2019-05-21T02:15:22.197Z,87.19
2019-05-21T02:16:22.203Z,87.30
2019-05-21T02:17:22.134Z,86.59
2019-05-21T02:18:22.174Z,86.90
2019-05-21T02:19:24.682Z,86.90
2019-05-21T02:20:22.105Z,87.50
2019-05-21T02:21:22.114Z,86.90
2019-05-21T02:22:22.082Z,87.40
2019-05-21T02:23:22.068Z,86.49
2019-05-21T02:24:22.058Z,86.39
2019-05-21T02:25:22.045Z,86.08
2019-05-21T02:26:22.095Z,86.29
2019-05-21T02:27:22.023Z,86.99
2019-05-21T02:28:22.014Z,86.33
2019-05-21T02:29:22.002Z,86.39
2019-05-21T02:30:22.005Z,87.24
2019-05-21T02:31:22.005Z,87.34
2019-05-21T02:32:22.045Z,86.83
2019-05-21T02:33:21.954Z,87.04
2019-05-21T02:34:21.949Z,87.54
2019-05-21T02:35:21.936Z,87.24
2019-05-21T02:36:21.957Z,87.54
2019-05-21T02:37:21.910Z,87.24
2019-05-21T02:38:21.906Z,87.44
2019-05-21T02:39:21.890Z,86.63
2019-05-21T02:40:21.889Z,86.53
2019-05-21T02:41:21.943Z,86.73
2019-05-21T02:42:21.869Z,86.43
2019-05-21T02:43:21.852Z,86.73
2019-05-21T02:44:21.835Z,86.13
2019-05-21T02:45:21.828Z,85.93
2019-05-21T02:46:21.861Z,86.33
2019-05-21T02:47:21.824Z,86.13
2019-05-21T02:48:21.798Z,85.93
2019-05-21T02:49:21.788Z,86.13
2019-05-21T02:50:21.772Z,86.13
2019-05-21T02:51:21.816Z,86.83
2019-05-21T02:52:21.759Z,87.34
2019-05-21T02:53:21.747Z,86.63
2019-05-21T02:54:39.258Z,86.73
2019-05-21T02:55:22.735Z,86.53
2019-05-21T02:56:21.706Z,86.53
2019-05-21T02:57:21.727Z,86.43
2019-05-21T02:58:21.687Z,86.13
2019-05-21T02:59:21.678Z,85.93
2019-05-21T03:00:21.694Z,86.43
2019-05-21T03:01:21.706Z,86.02
2019-05-21T03:02:21.647Z,86.43
2019-05-21T03:03:21.637Z,86.53
2019-05-21T03:04:21.621Z,86.33
2019-05-21T03:05:21.623Z,86.67
2019-05-21T03:06:21.606Z,86.67
2019-05-21T03:07:25.233Z,86.93
2019-05-21T03:08:21.576Z,87.13
2019-05-21T03:09:21.567Z,87.24
2019-05-21T03:10:21.558Z,87.34
2019-05-21T03:11:21.561Z,86.73
2019-05-21T03:12:21.619Z,86.33
2019-05-21T03:13:21.525Z,86.33
2019-05-21T03:14:21.541Z,85.72
2019-05-21T03:15:21.506Z,86.22
2019-05-21T03:16:21.497Z,86.43
2019-05-21T03:17:21.529Z,86.02
2019-05-21T03:18:21.471Z,86.33
2019-05-21T03:19:21.462Z,86.22
2019-05-21T03:20:21.453Z,85.93
2019-05-21T03:21:21.448Z,85.96
2019-05-21T03:22:21.432Z,85.82
2019-05-21T03:23:21.448Z,86.33
2019-05-21T03:24:21.409Z,86.43
2019-05-21T03:25:21.410Z,86.53
2019-05-21T03:26:21.389Z,86.63
2019-05-21T03:27:21.379Z,86.53
2019-05-21T03:28:21.399Z,86.87
2019-05-21T03:29:21.347Z,86.37
2019-05-21T03:30:21.342Z,86.53
2019-05-21T03:31:21.398Z,87.04
2019-05-21T03:32:21.324Z,86.37
2019-05-21T03:33:21.375Z,85.82
2019-05-21T03:34:21.373Z,86.16
2019-05-21T03:35:21.291Z,86.47
2019-05-21T03:36:32.849Z,87.48
2019-05-21T03:37:22.270Z,87.64
2019-05-21T03:38:21.262Z,88.15
2019-05-21T03:39:21.278Z,87.68
2019-05-21T03:40:21.230Z,87.64
2019-05-21T03:41:21.219Z,87.04
2019-05-21T03:42:21.211Z,86.37
2019-05-21T03:43:21.195Z,86.07
2019-05-21T03:44:21.227Z,85.96
2019-05-21T03:45:21.185Z,86.77
2019-05-21T03:46:21.173Z,87.64
2019-05-21T03:47:21.167Z,86.43
2019-05-21T03:48:21.152Z,86.07
2019-05-21T03:49:21.164Z,86.63
2019-05-21T03:50:21.126Z,87.54
2019-05-21T03:51:21.117Z,87.74
2019-05-21T03:52:21.108Z,88.15
2019-05-21T03:53:21.101Z,87.13
2019-05-21T03:54:21.128Z,87.84
2019-05-21T03:55:21.068Z,87.48
2019-05-21T03:56:21.064Z,87.44
2019-05-21T03:57:21.057Z,86.93
2019-05-21T03:58:21.044Z,86.73
2019-05-21T03:59:21.083Z,86.27
2019-05-21T04:00:21.016Z,86.22
2019-05-21T04:01:21.005Z,85.31
2019-05-21T04:02:20.992Z,85.56
2019-05-21T04:03:20.996Z,86.37
2019-05-21T04:04:20.995Z,86.43
2019-05-21T04:05:21.026Z,87.04
2019-05-21T04:06:20.956Z,87.74
2019-05-21T04:07:20.950Z,87.24
2019-05-21T04:08:21.022Z,87.13
2019-05-21T04:09:20.921Z,87.95
2019-05-21T04:10:20.949Z,87.44
2019-05-21T04:11:20.899Z,86.83
2019-05-21T04:12:20.886Z,87.24
2019-05-21T04:13:20.875Z,87.13
2019-05-21T04:14:20.868Z,86.93
2019-05-21T04:15:20.859Z,86.33
2019-05-21T04:16:20.898Z,86.22
2019-05-21T04:17:20.838Z,86.22
2019-05-21T04:18:20.821Z,86.33
2019-05-21T04:19:20.846Z,86.33
2019-05-21T04:20:20.799Z,86.53
2019-05-21T04:21:20.788Z,86.63
2019-05-21T04:22:20.826Z,86.22
2019-05-21T04:23:20.773Z,86.43
2019-05-21T04:24:20.761Z,85.82
2019-05-21T04:25:20.752Z,86.53
2019-05-21T04:26:20.740Z,86.02
2019-05-21T04:27:20.785Z,85.82
2019-05-21T04:28:20.720Z,86.22
2019-05-21T04:29:20.710Z,86.22
2019-05-21T04:30:20.697Z,85.82
2019-05-21T04:31:20.682Z,86.53
2019-05-21T04:32:20.669Z,86.93
2019-05-21T04:33:20.721Z,86.83
2019-05-21T04:34:20.696Z,86.63
2019-05-21T04:35:20.647Z,86.33
2019-05-21T04:36:20.643Z,86.33
2019-05-21T04:37:20.618Z,86.33
2019-05-21T04:38:20.639Z,85.93
2019-05-21T04:39:20.599Z,86.22
2019-05-21T04:40:20.589Z,86.33
2019-05-21T04:41:20.576Z,85.99
2019-05-21T04:42:20.560Z,85.42
2019-05-21T04:43:20.584Z,86.43
2019-05-21T04:44:20.540Z,86.13
2019-05-21T04:45:20.594Z,86.22
2019-05-21T04:46:20.526Z,86.33
2019-05-21T04:47:20.516Z,86.43
2019-05-21T04:48:20.556Z,86.43
2019-05-21T04:49:20.485Z,86.29
2019-05-21T04:50:20.473Z,86.49
2019-05-21T04:51:20.467Z,85.99
2019-05-21T04:52:20.454Z,86.19
2019-05-21T04:53:20.469Z,85.78
2019-05-21T04:54:20.435Z,86.08
2019-05-21T04:55:20.422Z,85.88
2019-05-21T04:56:20.410Z,85.78
2019-05-21T04:57:20.412Z,84.06
2019-05-21T04:58:20.419Z,85.28
2019-05-21T04:59:20.386Z,85.99
2019-05-21T05:00:20.375Z,85.99
2019-05-21T05:01:20.359Z,86.33
2019-05-21T05:02:20.396Z,86.69
2019-05-21T05:03:20.337Z,86.59
2019-05-21T05:04:21.703Z,86.25
2019-05-21T05:05:20.322Z,86.39
2019-05-21T05:06:20.333Z,87.19
2019-05-21T05:07:28.064Z,86.39
2019-05-21T05:08:21.336Z,86.19
2019-05-21T05:09:20.273Z,86.08
2019-05-21T05:10:20.282Z,85.99
2019-05-21T05:11:20.256Z,87.56
2019-05-21T05:12:20.247Z,87.86
2019-05-21T05:13:20.328Z,87.56
2019-05-21T05:14:20.218Z,86.55
2019-05-21T05:15:20.210Z,86.35
2019-05-21T05:16:20.199Z,85.74
2019-05-21T05:17:20.192Z,85.74
2019-05-21T05:18:20.233Z,85.54
2019-05-21T05:19:20.174Z,85.74
2019-05-21T05:20:20.164Z,86.04
2019-05-21T05:21:20.145Z,85.74
2019-05-21T05:22:20.133Z,85.54
2019-05-21T05:23:20.158Z,86.04
2019-05-21T05:24:20.138Z,85.80
2019-05-21T05:25:20.110Z,85.70
2019-05-21T05:26:20.094Z,85.80
2019-05-21T05:27:20.137Z,85.70
2019-05-21T05:28:20.572Z,86.00
2019-05-21T05:29:20.074Z,85.60
2019-05-21T05:30:20.057Z,85.70
2019-05-21T05:31:20.038Z,85.90
2019-05-21T05:32:20.027Z,85.80
2019-05-21T05:33:20.068Z,83.48
2019-05-21T05:34:20.010Z,82.67
2019-05-21T05:35:20.018Z,83.88
2019-05-21T05:36:19.990Z,82.98
2019-05-21T05:37:19.981Z,85.40
2019-05-21T05:38:20.040Z,85.90
2019-05-21T05:39:19.953Z,84.59
2019-05-21T05:40:19.948Z,85.05
2019-05-21T05:41:19.950Z,85.76
2019-05-21T05:42:19.927Z,85.70
2019-05-21T05:43:20.699Z,84.15
2019-05-21T05:44:19.939Z,84.05
2019-05-21T05:45:19.889Z,84.05
2019-05-21T05:46:19.879Z,83.64
2019-05-21T05:47:19.879Z,82.73
2019-05-21T05:48:19.865Z,82.84
2019-05-21T05:49:19.862Z,84.05
2019-05-21T05:50:19.889Z,83.04
2019-05-21T05:51:19.840Z,82.84
2019-05-21T05:52:19.820Z,83.40
2019-05-21T05:53:19.811Z,83.80
2019-05-21T05:54:19.800Z,79.81
2019-05-21T05:55:19.816Z,81.18
2019-05-21T05:56:19.771Z,78.96
2019-05-21T05:57:19.767Z,78.66
2019-05-21T05:58:19.754Z,79.21
2019-05-21T05:59:19.742Z,79.61
2019-05-21T06:00:19.733Z,80.88
2019-05-21T06:01:19.773Z,82.13
2019-05-21T06:02:19.705Z,79.16
2019-05-21T06:03:19.709Z,79.77
2019-05-21T06:04:19.739Z,82.19
2019-05-21T06:05:19.680Z,82.29
2019-05-21T06:06:19.674Z,82.09
2019-05-21T06:07:19.655Z,82.79
2019-05-21T06:08:19.644Z,82.19
2019-05-21T06:09:19.704Z,81.75
2019-05-21T06:10:19.632Z,81.65
2019-05-21T06:11:19.783Z,82.76
2019-05-21T06:12:19.607Z,79.57
2019-05-21T06:13:19.590Z,79.47
2019-05-21T06:14:19.604Z,81.38
2019-05-21T06:15:19.577Z,80.74
2019-05-21T06:16:19.616Z,81.85
2019-05-21T06:17:19.560Z,79.03
2019-05-21T06:18:19.552Z,80.20
2019-05-21T06:19:19.551Z,79.63
2019-05-21T06:20:19.514Z,78.99
2019-05-21T06:21:19.504Z,79.29
2019-05-21T06:22:19.509Z,81.01
2019-05-21T06:23:19.487Z,80.60
2019-05-21T06:24:19.501Z,80.90
2019-05-21T06:25:19.467Z,81.41
2019-05-21T06:26:19.455Z,80.16
2019-05-21T06:27:19.440Z,77.55
2019-05-21T06:28:19.432Z,82.01
2019-05-21T06:29:19.461Z,81.37
2019-05-21T06:30:19.411Z,81.67
2019-05-21T06:31:19.400Z,81.63
2019-05-21T06:32:19.394Z,81.07
2019-05-21T06:33:19.380Z,80.57
2019-05-21T06:34:19.401Z,79.32
2019-05-21T06:35:19.359Z,77.24
2019-05-21T06:36:19.456Z,76.80
2019-05-21T06:37:19.338Z,75.70
2019-05-21T06:38:19.334Z,75.49
2019-05-21T06:39:19.336Z,75.99
2019-05-21T06:40:19.298Z,75.79
2019-05-21T06:41:19.300Z,72.47
2019-05-21T06:42:19.278Z,74.18
2019-05-21T06:43:19.282Z,75.19
2019-05-21T06:44:19.295Z,74.58
2019-05-21T06:45:19.245Z,74.29
2019-05-21T06:46:19.271Z,72.57
2019-05-21T06:47:19.262Z,72.88
2019-05-21T06:48:19.220Z,73.44
2019-05-21T06:49:19.208Z,74.38
2019-05-21T06:50:19.196Z,74.41
2019-05-21T06:51:19.327Z,71.83
2019-05-21T06:52:19.208Z,71.40
2019-05-21T06:53:19.436Z,72.41
2019-05-21T06:54:19.422Z,70.59
2019-05-21T06:55:19.166Z,71.20
2019-05-21T06:56:19.226Z,72.30
2019-05-21T06:57:19.132Z,74.48
2019-05-21T06:58:19.187Z,71.26
2019-05-21T06:59:19.115Z,72.67
2019-05-21T07:00:19.086Z,73.14
2019-05-21T07:01:27.616Z,73.14
2019-05-21T07:02:20.068Z,72.40
2019-05-21T07:03:19.054Z,72.40
2019-05-21T07:04:19.098Z,73.00
2019-05-21T07:05:19.039Z,73.67
2019-05-21T07:06:19.021Z,73.67
2019-05-21T07:07:19.042Z,73.84
2019-05-21T07:08:33.638Z,72.63
2019-05-21T07:09:20.027Z,69.42
2019-05-21T07:10:18.983Z,70.69
2019-05-21T07:11:18.970Z,71.30
2019-05-21T07:12:19.043Z,70.79
2019-05-21T07:13:18.948Z,69.56
2019-05-21T07:14:18.990Z,69.16
2019-05-21T07:15:18.932Z,70.76
2019-05-21T07:16:18.921Z,70.03
2019-05-21T07:17:18.905Z,67.55
2019-05-21T07:18:18.934Z,65.36
2019-05-21T07:19:18.887Z,60.92
2019-05-21T07:20:18.886Z,57.34
2019-05-21T07:21:18.872Z,54.49
2019-05-21T07:22:18.856Z,52.12
2019-05-21T07:23:18.840Z,48.96
2019-05-21T07:24:18.873Z,46.67
2019-05-21T07:25:18.846Z,41.78
2019-05-21T07:26:18.872Z,39.76
2019-05-21T07:27:18.806Z,38.06
2019-05-21T07:28:18.820Z,37.63
2019-05-21T07:29:18.815Z,35.61
2019-05-21T07:30:18.772Z,35.17
2019-05-21T07:31:19.401Z,34.73
2019-05-21T07:32:18.746Z,33.14
2019-05-21T07:33:18.740Z,32.05
2019-05-21T07:34:18.768Z,34.64
2019-05-21T07:35:18.716Z,34.25
2019-05-21T07:36:18.703Z,34.29
2019-05-21T07:37:18.697Z,35.22
2019-05-21T07:38:18.687Z,35.14
2019-05-21T07:39:18.701Z,35.71
2019-05-21T07:40:18.706Z,35.41
2019-05-21T07:41:20.413Z,34.32
2019-05-21T07:42:18.760Z,33.93
2019-05-21T07:43:18.636Z,34.69
2019-05-21T07:44:18.741Z,32.06
2019-05-21T07:45:18.620Z,31.82
2019-05-21T07:46:18.621Z,30.72
2019-05-21T07:47:18.666Z,29.82
2019-05-21T07:48:18.610Z,30.27
2019-05-21T07:49:18.587Z,29.47
2019-05-21T07:50:18.595Z,29.15
2019-05-21T07:51:18.637Z,27.58
2019-05-21T07:52:18.564Z,27.29
2019-05-21T07:53:18.619Z,27.19
2019-05-21T07:54:18.544Z,27.17
2019-05-21T07:55:18.586Z,27.06
2019-05-21T07:56:18.548Z,26.76
2019-05-21T07:57:18.511Z,25.97
2019-05-21T07:58:18.504Z,26.15
2019-05-21T07:59:18.493Z,25.93
2019-05-21T08:00:18.528Z,25.34
2019-05-21T08:01:18.547Z,25.23
2019-05-21T08:02:18.525Z,24.55
2019-05-21T08:03:18.581Z,24.44
2019-05-21T08:04:18.448Z,24.35
2019-05-21T08:05:18.468Z,24.54
2019-05-21T08:06:18.495Z,23.79
2019-05-21T08:07:18.436Z,23.98
2019-05-21T08:08:18.509Z,24.46
2019-05-21T08:09:18.879Z,23.97
2019-05-21T08:10:18.587Z,24.55
2019-05-21T08:11:18.392Z,24.07
2019-05-21T08:12:37.197Z,24.34
2019-05-21T08:13:19.378Z,24.41
2019-05-21T08:14:18.376Z,23.15
2019-05-21T08:15:18.388Z,22.86
2019-05-21T08:16:18.438Z,22.97
2019-05-21T08:17:18.365Z,23.26
2019-05-21T08:18:18.403Z,23.65
2019-05-21T08:19:18.328Z,25.27
2019-05-21T08:20:18.357Z,23.24
2019-05-21T08:21:18.304Z,22.38
2019-05-21T08:22:18.300Z,22.56
2019-05-21T08:23:18.298Z,22.08
2019-05-21T08:24:18.299Z,22.35
2019-05-21T08:25:18.313Z,22.17
2019-05-21T08:26:18.303Z,22.86
2019-05-21T08:27:18.257Z,23.08
2019-05-21T08:28:18.252Z,23.49
2019-05-21T08:29:26.936Z,24.45
2019-05-21T08:30:18.331Z,23.67
2019-05-21T08:31:18.231Z,24.21
2019-05-21T08:32:18.222Z,22.96
2019-05-21T08:33:18.249Z,24.38
2019-05-21T08:34:18.207Z,22.54
2019-05-21T08:35:18.220Z,23.39
2019-05-21T08:36:18.213Z,22.82
2019-05-21T08:37:18.233Z,22.33
2019-05-21T08:38:18.170Z,22.61
2019-05-21T08:39:28.337Z,22.04
2019-05-21T08:40:19.197Z,22.51
2019-05-21T08:41:18.155Z,21.64
2019-05-21T08:42:18.146Z,22.19
2019-05-21T08:43:18.149Z,21.14
2019-05-21T08:44:18.143Z,21.52
2019-05-21T08:45:18.157Z,21.70
2019-05-21T08:46:18.135Z,20.65
2019-05-21T08:47:18.108Z,20.07
2019-05-21T08:48:18.124Z,20.92
2019-05-21T08:49:18.102Z,20.26
2019-05-21T08:50:18.092Z,19.97
2019-05-21T08:51:18.098Z,19.59
2019-05-21T08:52:18.099Z,19.40
2019-05-21T08:53:18.072Z,19.42
2019-05-21T08:54:18.064Z,20.97
2019-05-21T08:55:18.060Z,20.57
2019-05-21T08:56:18.071Z,21.52
2019-05-21T08:57:18.064Z,20.07
2019-05-21T08:58:18.030Z,19.60
2019-05-21T08:59:18.028Z,19.32
2019-05-21T09:00:18.018Z,20.42
2019-05-21T09:01:18.044Z,22.53
2019-05-21T09:02:18.037Z,23.09
2019-05-21T09:03:18.059Z,22.78
2019-05-21T09:04:18.056Z,22.47
2019-05-21T09:05:18.031Z,21.58
2019-05-21T09:06:18.097Z,21.49
2019-05-21T09:07:18.027Z,21.28
2019-05-21T09:08:18.010Z,21.59
2019-05-21T09:09:18.010Z,21.69
2019-05-21T09:10:17.998Z,21.32
2019-05-21T09:11:18.069Z,21.41
2019-05-21T09:12:17.994Z,21.87
2019-05-21T09:13:18.342Z,21.47
2019-05-21T09:14:18.180Z,20.31
2019-05-21T09:15:18.004Z,21.09
2019-05-21T09:16:18.036Z,21.20
2019-05-21T09:17:17.960Z,20.32
2019-05-21T09:18:17.944Z,21.48
2019-05-21T09:19:17.934Z,22.14
2019-05-21T09:20:17.925Z,21.83
2019-05-21T09:21:18.013Z,21.45
2019-05-21T09:22:17.913Z,21.42
2019-05-21T09:23:17.907Z,22.75
2019-05-21T09:24:17.917Z,23.79
2019-05-21T09:25:17.926Z,25.62
2019-05-21T09:26:18.245Z,27.70
2019-05-21T09:27:17.891Z,27.86
2019-05-21T09:28:17.877Z,29.17
2019-05-21T09:29:17.866Z,29.07
2019-05-21T09:30:17.861Z,29.67
2019-05-21T09:31:17.868Z,28.22
2019-05-21T09:32:17.922Z,27.29
2019-05-21T09:33:17.850Z,26.37
2019-05-21T09:34:17.853Z,26.57
2019-05-21T09:35:17.797Z,26.25
2019-05-21T09:36:17.837Z,25.82
2019-05-21T09:37:20.032Z,25.60
2019-05-21T09:38:17.974Z,26.59
2019-05-21T09:39:17.757Z,26.01
2019-05-21T09:40:17.766Z,26.14
2019-05-21T09:41:17.772Z,26.20
2019-05-21T09:42:17.774Z,27.53
2019-05-21T09:43:17.817Z,29.06
2019-05-21T09:44:17.759Z,29.88
2019-05-21T09:45:17.755Z,31.77
2019-05-21T09:46:17.729Z,33.07
2019-05-21T09:47:17.734Z,33.87
2019-05-21T09:48:17.781Z,34.16
2019-05-21T09:49:17.697Z,31.98
2019-05-21T09:50:17.703Z,29.49
2019-05-21T09:51:20.055Z,28.43
2019-05-21T09:52:17.670Z,27.58
2019-05-21T09:53:17.731Z,28.51
2019-05-21T09:54:17.617Z,29.25
2019-05-21T09:55:17.622Z,29.98
2019-05-21T09:56:17.572Z,31.77
2019-05-21T09:57:17.578Z,31.59
2019-05-21T09:58:17.597Z,31.81
2019-05-21T09:59:17.548Z,31.86
2019-05-21T10:00:17.594Z,33.26
2019-05-21T10:01:17.528Z,34.38
2019-05-21T10:02:17.520Z,34.97
2019-05-21T10:03:17.529Z,31.98
2019-05-21T10:04:17.495Z,30.78
2019-05-21T10:05:17.493Z,28.15
2019-05-21T10:06:17.511Z,26.25
2019-05-21T10:07:17.477Z,25.31
2019-05-21T10:08:17.642Z,22.67
2019-05-21T10:09:17.465Z,22.47
2019-05-21T10:10:17.445Z,22.96
2019-05-21T10:11:17.441Z,22.74
2019-05-21T10:12:17.433Z,21.37
2019-05-21T10:13:17.452Z,22.79
2019-05-21T10:14:17.463Z,21.82
2019-05-21T10:15:17.407Z,22.59
2019-05-21T10:16:17.424Z,21.61
2019-05-21T10:17:17.395Z,22.00
2019-05-21T10:18:17.388Z,21.42
2019-05-21T10:19:17.417Z,21.72
2019-05-21T10:20:17.374Z,21.35
2019-05-21T10:21:17.398Z,22.13
2019-05-21T10:22:17.414Z,22.97
2019-05-21T10:23:17.349Z,23.79
2019-05-21T10:24:17.374Z,25.56
2019-05-21T10:25:17.342Z,25.88
2019-05-21T10:26:17.334Z,26.10
2019-05-21T10:27:17.356Z,25.74
2019-05-21T10:28:17.312Z,26.64
2019-05-21T10:29:17.353Z,27.15
2019-05-21T10:30:17.306Z,28.15
2019-05-21T10:31:17.296Z,29.33
2019-05-21T10:32:17.288Z,29.33
2019-05-21T10:33:17.276Z,29.74
2019-05-21T10:34:17.304Z,30.44
2019-05-21T10:35:17.258Z,30.66
2019-05-21T10:36:17.256Z,30.88
2019-05-21T10:37:17.279Z,30.61
2019-05-21T10:38:17.236Z,30.94
2019-05-21T10:39:17.263Z,32.71
2019-05-21T10:40:17.230Z,33.05
2019-05-21T10:41:17.203Z,33.56
2019-05-21T10:42:17.230Z,34.56
2019-05-21T10:43:17.192Z,34.56
2019-05-21T10:44:17.274Z,35.14
2019-05-21T10:45:17.168Z,34.92
2019-05-21T10:46:17.158Z,33.43
2019-05-21T10:47:17.164Z,34.70
2019-05-21T10:48:17.137Z,35.19
2019-05-21T10:49:17.138Z,34.74
2019-05-21T10:50:17.159Z,34.85
2019-05-21T10:51:17.117Z,34.77
2019-05-21T10:52:17.110Z,34.89
2019-05-21T10:53:17.093Z,34.10
2019-05-21T10:54:17.081Z,34.28
2019-05-21T10:55:17.749Z,34.38
2019-05-21T10:56:17.060Z,34.30
2019-05-21T10:57:17.058Z,34.70
2019-05-21T10:58:17.052Z,35.20
2019-05-21T10:59:17.073Z,35.59
2019-05-21T11:00:17.058Z,35.39
2019-05-21T11:01:17.101Z,34.92
2019-05-21T11:02:17.004Z,35.41
2019-05-21T11:03:17.073Z,36.25
2019-05-21T11:04:16.988Z,36.48
2019-05-21T11:05:17.005Z,37.27
2019-05-21T11:06:16.993Z,38.35
2019-05-21T11:07:16.947Z,37.95
2019-05-21T11:08:25.180Z,37.53
2019-05-21T11:09:17.988Z,36.65
2019-05-21T11:10:16.977Z,36.72
2019-05-21T11:11:21.117Z,36.51
2019-05-21T11:12:16.905Z,37.10
2019-05-21T11:13:16.889Z,35.92
2019-05-21T11:14:16.882Z,35.33
2019-05-21T11:15:16.876Z,37.32
2019-05-21T11:16:16.887Z,36.05
2019-05-21T11:17:16.847Z,36.07
2019-05-21T11:18:16.840Z,36.27
2019-05-21T11:19:16.829Z,36.58
2019-05-21T11:20:16.820Z,37.27
2019-05-21T11:21:16.851Z,37.57
2019-05-21T11:22:17.444Z,38.67
2019-05-21T11:23:16.793Z,38.95
2019-05-21T11:24:16.832Z,38.26
2019-05-21T11:25:16.765Z,39.54
2019-05-21T11:26:16.809Z,38.06
2019-05-21T11:27:16.747Z,38.85
2019-05-21T11:28:16.742Z,39.23
2019-05-21T11:29:16.731Z,39.81
2019-05-21T11:30:16.725Z,38.34
2019-05-21T11:31:16.731Z,36.68
2019-05-21T11:32:16.744Z,35.91
2019-05-21T11:33:16.692Z,37.30
2019-05-21T11:34:16.684Z,37.52
2019-05-21T11:35:16.667Z,38.13
2019-05-21T11:36:16.663Z,39.42
2019-05-21T11:37:16.677Z,38.33
2019-05-21T11:38:16.635Z,38.23
2019-05-21T11:39:16.670Z,39.79
2019-05-21T11:40:16.612Z,38.71
2019-05-21T11:41:16.729Z,37.43
2019-05-21T11:42:16.633Z,37.34
2019-05-21T11:43:16.597Z,37.16
2019-05-21T11:44:16.576Z,37.85
2019-05-21T11:45:31.133Z,38.84
2019-05-21T11:46:17.597Z,38.75
2019-05-21T11:47:16.545Z,38.23
2019-05-21T11:48:16.585Z,38.25
2019-05-21T11:49:16.528Z,39.54
2019-05-21T11:50:16.510Z,40.23
2019-05-21T11:51:16.668Z,39.14
2019-05-21T11:52:16.518Z,38.86
2019-05-21T11:53:16.481Z,38.37
2019-05-21T11:54:16.965Z,38.68
2019-05-21T11:55:16.461Z,39.26
2019-05-21T11:56:16.450Z,40.45
2019-05-21T11:57:16.468Z,40.94
2019-05-21T11:58:16.457Z,39.75
2019-05-21T11:59:16.433Z,37.98
2019-05-21T12:00:16.402Z,40.03
2019-05-21T12:01:16.579Z,39.93
2019-05-21T12:02:16.387Z,40.92
2019-05-21T12:03:16.409Z,40.11
2019-05-21T12:04:16.367Z,38.23
2019-05-21T12:05:16.354Z,38.35
2019-05-21T12:06:16.354Z,40.01
2019-05-21T12:07:16.345Z,39.54
2019-05-21T12:08:16.347Z,39.72
2019-05-21T12:09:16.320Z,39.62
2019-05-21T12:10:16.298Z,40.61
2019-05-21T12:11:16.397Z,40.90
2019-05-21T12:12:16.365Z,41.20
2019-05-21T12:13:20.293Z,39.34
2019-05-21T12:14:16.262Z,38.25
2019-05-21T12:15:16.248Z,40.45
2019-05-21T12:16:16.238Z,41.04
2019-05-21T12:17:16.224Z,41.63
2019-05-21T12:18:16.246Z,41.04
2019-05-21T12:19:16.210Z,42.62
2019-05-21T12:20:16.200Z,42.92
2019-05-21T12:21:16.179Z,42.72
2019-05-21T12:22:16.183Z,43.21
2019-05-21T12:23:16.195Z,42.84
2019-05-21T12:24:16.193Z,42.54
2019-05-21T12:25:16.151Z,42.54
2019-05-21T12:26:16.136Z,42.14
2019-05-21T12:27:16.126Z,42.76
2019-05-21T12:28:16.120Z,43.13
2019-05-21T12:29:16.136Z,43.55
2019-05-21T12:30:16.093Z,42.27
2019-05-21T12:31:16.081Z,41.67
2019-05-21T12:32:16.071Z,41.08
2019-05-21T12:33:16.069Z,42.88
2019-05-21T12:34:16.087Z,43.28
2019-05-21T12:35:16.043Z,43.38
2019-05-21T12:36:16.030Z,43.38
2019-05-21T12:37:16.031Z,43.57
2019-05-21T12:38:16.050Z,44.17
2019-05-21T12:39:16.012Z,43.55
2019-05-21T12:40:16.039Z,43.35
2019-05-21T12:41:15.980Z,44.24
2019-05-21T12:42:15.965Z,44.17
2019-05-21T12:43:15.956Z,44.76
2019-05-21T12:44:15.975Z,44.76
2019-05-21T12:45:15.970Z,45.45
2019-05-21T12:46:15.928Z,44.59
2019-05-21T12:47:15.919Z,44.89
2019-05-21T12:48:15.905Z,44.98
2019-05-21T12:49:15.939Z,44.89
2019-05-21T12:50:15.880Z,45.00
2019-05-21T12:51:15.874Z,43.02
2019-05-21T12:52:15.865Z,42.55